Weather at McConnaughhay's Field

Public forecast

Using degrees Fahrenheit for public forecast. Weather courtesy of forecast.io.

Closest aviation weather report (METAR) to McConnaughhay's Field

Closest report is Searcy Municipal Airport, 8.2 nm (15.2 km) NW. Retrieved 2021/10/21 03:56 UTC (53 minutes ago):

KSRC 210356Z AUTO 00000KT 10SM BKN070 16/15 A3010 RMK AO2 SLP191 T01610150

Closest aviation forecast (TAF) to McConnaughhay's Field

Closest forecast is Little Rock Air Force Base, 27.1 nm (50.2 km) WSW. Retrieved 2021-10-21 23:06 UTC (0 seconds ago):

TAF KLRF 202300Z 2023/2205 21006KT 9999 FEW150 QNH3004INS BECMG 2109/2110 24006KT 9999 BKN025 OVC035 QNH3007INS BECMG 2112/2113 31009KT 9999 FEW035 QNH3009INS BECMG 2115/2116 32010G15KT 9999 SKC QNH3005INS BECMG 2121/2122 34008KT 9999 SKC QNH3006INS TX25/2023Z TN16/2115Z